sensor_id;sensor_type;location;lat;lon;timestamp;temperature;humidity
75380;HTU21D;65641;44.714;37.756;2023-02-01T00:00:37;5.78;74.41
75380;HTU21D;65641;44.714;37.756;2023-02-01T00:01:40;5.78;74.38
75380;HTU21D;65641;44.714;37.756;2023-02-01T00:02:43;5.77;74.38
75380;HTU21D;65641;44.714;37.756;2023-02-01T00:03:46;5.77;74.38
75380;HTU21D;65641;44.714;37.756;2023-02-01T00:04:49;5.78;74.35
75380;HTU21D;65641;44.714;37.756;2023-02-01T00:05:56;5.76;74.40
75380;HTU21D;65641;44.714;37.756;2023-02-01T00:07:00;5.75;74.40
75380;HTU21D;65641;44.714;37.756;2023-02-01T00:08:04;5.76;74.35
75380;HTU21D;65641;44.714;37.756;2023-02-01T00:09:08;5.75;74.35
75380;HTU21D;65641;44.714;37.756;2023-02-01T00:10:11;5.76;74.28
75380;HTU21D;65641;44.714;37.756;2023-02-01T00:11:14;5.76;74.28
75380;HTU21D;65641;44.714;37.756;2023-02-01T00:12:17;5.74;74.24
75380;HTU21D;65641;44.714;37.756;2023-02-01T00:13:20;5.75;74.21
75380;HTU21D;65641;44.714;37.756;2023-02-01T00:14:23;5.75;74.20
75380;HTU21D;65641;44.714;37.756;2023-02-01T00:15:28;5.74;74.19
75380;HTU21D;65641;44.714;37.756;2023-02-01T00:16:35;5.74;74.23
75380;HTU21D;65641;44.714;37.756;2023-02-01T00:17:39;5.72;74.20
75380;HTU21D;65641;44.714;37.756;2023-02-01T00:18:43;5.71;74.18
75380;HTU21D;65641;44.714;37.756;2023-02-01T00:19:47;5.70;74.17
75380;HTU21D;65641;44.714;37.756;2023-02-01T00:20:52;5.71;74.10
75380;HTU21D;65641;44.714;37.756;2023-02-01T00:21:55;5.70;74.11
75380;HTU21D;65641;44.714;37.756;2023-02-01T00:22:58;5.70;74.06
75380;HTU21D;65641;44.714;37.756;2023-02-01T00:24:04;5.68;74.10
75380;HTU21D;65641;44.714;37.756;2023-02-01T00:25:08;5.67;74.16
75380;HTU21D;65641;44.714;37.756;2023-02-01T00:26:32;5.66;74.15
75380;HTU21D;65641;44.714;37.756;2023-02-01T00:27:36;5.64;74.18
75380;HTU21D;65641;44.714;37.756;2023-02-01T00:28:38;5.64;74.20
75380;HTU21D;65641;44.714;37.756;2023-02-01T00:29:42;5.64;74.20
75380;HTU21D;65641;44.714;37.756;2023-02-01T00:30:45;5.61;74.23
75380;HTU21D;65641;44.714;37.756;2023-02-01T00:31:50;5.60;74.17
75380;HTU21D;65641;44.714;37.756;2023-02-01T00:32:54;5.63;74.17
75380;HTU21D;65641;44.714;37.756;2023-02-01T00:33:58;5.63;74.13
75380;HTU21D;65641;44.714;37.756;2023-02-01T00:35:02;5.61;74.13
75380;HTU21D;65641;44.714;37.756;2023-02-01T00:36:13;5.61;74.10
75380;HTU21D;65641;44.714;37.756;2023-02-01T00:37:19;5.61;74.10
75380;HTU21D;65641;44.714;37.756;2023-02-01T00:38:22;5.60;74.12
75380;HTU21D;65641;44.714;37.756;2023-02-01T00:39:25;5.60;74.11
75380;HTU21D;65641;44.714;37.756;2023-02-01T00:40:28;5.60;74.06
75380;HTU21D;65641;44.714;37.756;2023-02-01T00:41:32;5.57;74.07
75380;HTU21D;65641;44.714;37.756;2023-02-01T00:42:35;5.57;74.05
75380;HTU21D;65641;44.714;37.756;2023-02-01T00:43:39;5.57;74.08
75380;HTU21D;65641;44.714;37.756;2023-02-01T00:44:42;5.56;74.11
75380;HTU21D;65641;44.714;37.756;2023-02-01T00:45:46;5.56;74.08
75380;HTU21D;65641;44.714;37.756;2023-02-01T00:46:52;5.56;74.03
75380;HTU21D;65641;44.714;37.756;2023-02-01T00:47:55;5.57;73.97
75380;HTU21D;65641;44.714;37.756;2023-02-01T00:48:58;5.56;73.96
75380;HTU21D;65641;44.714;37.756;2023-02-01T00:50:02;5.55;73.94
75380;HTU21D;65641;44.714;37.756;2023-02-01T00:51:10;5.56;73.93
75380;HTU21D;65641;44.714;37.756;2023-02-01T00:52:17;5.56;73.92
75380;HTU21D;65641;44.714;37.756;2023-02-01T00:53:20;5.56;73.92
75380;HTU21D;65641;44.714;37.756;2023-02-01T00:54:23;5.55;73.92
75380;HTU21D;65641;44.714;37.756;2023-02-01T00:55:27;5.54;73.94
75380;HTU21D;65641;44.714;37.756;2023-02-01T00:56:30;5.55;73.92
75380;HTU21D;65641;44.714;37.756;2023-02-01T00:57:34;5.55;73.89
75380;HTU21D;65641;44.714;37.756;2023-02-01T00:58:37;5.55;73.88
75380;HTU21D;65641;44.714;37.756;2023-02-01T00:59:41;5.55;73.92
75380;HTU21D;65641;44.714;37.756;2023-02-01T01:00:45;5.55;73.91
75380;HTU21D;65641;44.714;37.756;2023-02-01T01:01:49;5.55;73.89
75380;HTU21D;65641;44.714;37.756;2023-02-01T01:02:52;5.55;73.90
75380;HTU21D;65641;44.714;37.756;2023-02-01T01:03:58;5.56;73.87
75380;HTU21D;65641;44.714;37.756;2023-02-01T01:05:01;5.55;73.93
75380;HTU21D;65641;44.714;37.756;2023-02-01T01:06:07;5.55;73.90
75380;HTU21D;65641;44.714;37.756;2023-02-01T01:07:13;5.56;73.90
75380;HTU21D;65641;44.714;37.756;2023-02-01T01:08:16;5.55;73.90
75380;HTU21D;65641;44.714;37.756;2023-02-01T01:09:19;5.54;73.87
75380;HTU21D;65641;44.714;37.756;2023-02-01T01:10:23;5.55;73.83
75380;HTU21D;65641;44.714;37.756;2023-02-01T01:11:29;5.55;73.86
75380;HTU21D;65641;44.714;37.756;2023-02-01T01:12:32;5.55;73.86
75380;HTU21D;65641;44.714;37.756;2023-02-01T01:13:35;5.56;73.84
75380;HTU21D;65641;44.714;37.756;2023-02-01T01:14:38;5.56;73.87
75380;HTU21D;65641;44.714;37.756;2023-02-01T01:15:42;5.56;73.92
75380;HTU21D;65641;44.714;37.756;2023-02-01T01:16:46;5.55;73.87
75380;HTU21D;65641;44.714;37.756;2023-02-01T01:17:50;5.55;73.95
75380;HTU21D;65641;44.714;37.756;2023-02-01T01:18:53;5.55;73.93
75380;HTU21D;65641;44.714;37.756;2023-02-01T01:19:57;5.56;73.96
75380;HTU21D;65641;44.714;37.756;2023-02-01T01:21:03;5.53;73.98
75380;HTU21D;65641;44.714;37.756;2023-02-01T01:22:06;5.53;73.98
75380;HTU21D;65641;44.714;37.756;2023-02-01T01:23:09;5.53;73.98
75380;HTU21D;65641;44.714;37.756;2023-02-01T01:24:12;5.54;74.02
75380;HTU21D;65641;44.714;37.756;2023-02-01T01:25:16;5.53;74.02
75380;HTU21D;65641;44.714;37.756;2023-02-01T01:26:21;5.52;74.08
75380;HTU21D;65641;44.714;37.756;2023-02-01T01:27:25;5.51;74.10
75380;HTU21D;65641;44.714;37.756;2023-02-01T01:28:28;5.51;74.14
75380;HTU21D;65641;44.714;37.756;2023-02-01T01:29:31;5.49;74.24
75380;HTU21D;65641;44.714;37.756;2023-02-01T01:30:34;5.49;74.24
75380;HTU21D;65641;44.714;37.756;2023-02-01T01:31:37;5.49;74.31
75380;HTU21D;65641;44.714;37.756;2023-02-01T01:32:43;5.46;74.35
75380;HTU21D;65641;44.714;37.756;2023-02-01T01:33:53;5.45;74.43
75380;HTU21D;65641;44.714;37.756;2023-02-01T01:34:57;5.45;74.42
75380;HTU21D;65641;44.714;37.756;2023-02-01T01:36:00;5.43;74.49
75380;HTU21D;65641;44.714;37.756;2023-02-01T01:37:02;5.45;74.49
75380;HTU21D;65641;44.714;37.756;2023-02-01T01:38:05;5.45;74.47
75380;HTU21D;65641;44.714;37.756;2023-02-01T01:39:09;5.43;74.43
75380;HTU21D;65641;44.714;37.756;2023-02-01T01:40:14;5.45;74.44
75380;HTU21D;65641;44.714;37.756;2023-02-01T01:41:23;5.42;74.44
75380;HTU21D;65641;44.714;37.756;2023-02-01T01:42:28;5.43;74.44
75380;HTU21D;65641;44.714;37.756;2023-02-01T01:44:02;5.45;74.42
75380;HTU21D;65641;44.714;37.756;2023-02-01T01:46:35;5.41;74.47
75380;HTU21D;65641;44.714;37.756;2023-02-01T01:47:47;5.41;74.54
75380;HTU21D;65641;44.714;37.756;2023-02-01T01:49:08;5.40;74.58
75380;HTU21D;65641;44.714;37.756;2023-02-01T01:50:16;5.41;74.53
75380;HTU21D;65641;44.714;37.756;2023-02-01T01:51:24;5.42;74.54
75380;HTU21D;65641;44.714;37.756;2023-02-01T01:52:29;5.41;74.51
75380;HTU21D;65641;44.714;37.756;2023-02-01T01:53:38;5.41;74.51
75380;HTU21D;65641;44.714;37.756;2023-02-01T01:54:47;5.41;74.47
75380;HTU21D;65641;44.714;37.756;2023-02-01T01:55:53;5.42;74.51
75380;HTU21D;65641;44.714;37.756;2023-02-01T01:57:00;5.43;74.48
75380;HTU21D;65641;44.714;37.756;2023-02-01T01:58:10;5.43;74.43
75380;HTU21D;65641;44.714;37.756;2023-02-01T01:59:14;5.43;74.44
75380;HTU21D;65641;44.714;37.756;2023-02-01T02:00:20;5.43;74.38
75380;HTU21D;65641;44.714;37.756;2023-02-01T02:01:27;5.43;74.30
75380;HTU21D;65641;44.714;37.756;2023-02-01T02:02:30;5.43;74.25
75380;HTU21D;65641;44.714;37.756;2023-02-01T02:03:40;5.43;74.26
75380;HTU21D;65641;44.714;37.756;2023-02-01T02:04:46;5.43;74.20
75380;HTU21D;65641;44.714;37.756;2023-02-01T02:05:50;5.43;74.18
75380;HTU21D;65641;44.714;37.756;2023-02-01T02:07:01;5.40;74.12
75380;HTU21D;65641;44.714;37.756;2023-02-01T02:08:06;5.41;74.11
75380;HTU21D;65641;44.714;37.756;2023-02-01T02:09:09;5.41;74.10
75380;HTU21D;65641;44.714;37.756;2023-02-01T02:10:14;5.39;74.07
75380;HTU21D;65641;44.714;37.756;2023-02-01T02:11:17;5.38;74.07
75380;HTU21D;65641;44.714;37.756;2023-02-01T02:12:20;5.38;74.06
75380;HTU21D;65641;44.714;37.756;2023-02-01T02:13:23;5.38;74.06
75380;HTU21D;65641;44.714;37.756;2023-02-01T02:14:27;5.36;74.10
75380;HTU21D;65641;44.714;37.756;2023-02-01T02:24:57;5.24;74.25
75380;HTU21D;65641;44.714;37.756;2023-02-01T02:27:56;5.23;74.24
75380;HTU21D;65641;44.714;37.756;2023-02-01T02:31:04;5.19;74.28
75380;HTU21D;65641;44.714;37.756;2023-02-01T02:35:05;5.16;74.31
75380;HTU21D;65641;44.714;37.756;2023-02-01T02:37:40;5.13;74.31
75380;HTU21D;65641;44.714;37.756;2023-02-01T02:40:15;5.11;74.31
75380;HTU21D;65641;44.714;37.756;2023-02-01T02:41:31;5.11;74.34
75380;HTU21D;65641;44.714;37.756;2023-02-01T02:49:12;5.13;74.19
75380;HTU21D;65641;44.714;37.756;2023-02-01T02:50:44;5.16;74.21
75380;HTU21D;65641;44.714;37.756;2023-02-01T02:52:13;5.17;74.22
75380;HTU21D;65641;44.714;37.756;2023-02-01T02:53:57;5.18;74.22
75380;HTU21D;65641;44.714;37.756;2023-02-01T02:55:21;5.19;74.20
75380;HTU21D;65641;44.714;37.756;2023-02-01T02:56:26;5.20;74.22
75380;HTU21D;65641;44.714;37.756;2023-02-01T02:57:48;5.21;74.21
75380;HTU21D;65641;44.714;37.756;2023-02-01T02:59:12;5.23;74.15
75380;HTU21D;65641;44.714;37.756;2023-02-01T03:00:35;5.25;74.12
75380;HTU21D;65641;44.714;37.756;2023-02-01T03:01:58;5.26;74.12
75380;HTU21D;65641;44.714;37.756;2023-02-01T03:03:20;5.31;74.02
75380;HTU21D;65641;44.714;37.756;2023-02-01T03:04:42;5.32;73.99
75380;HTU21D;65641;44.714;37.756;2023-02-01T03:05:47;5.33;73.94
75380;HTU21D;65641;44.714;37.756;2023-02-01T03:06:52;5.35;73.88
75380;HTU21D;65641;44.714;37.756;2023-02-01T03:08:10;5.36;73.80
75380;HTU21D;65641;44.714;37.756;2023-02-01T03:10:32;5.41;73.66
75380;HTU21D;65641;44.714;37.756;2023-02-01T03:11:42;5.42;73.58
75380;HTU21D;65641;44.714;37.756;2023-02-01T03:14:32;5.48;73.56
75380;HTU21D;65641;44.714;37.756;2023-02-01T03:15:51;5.50;73.53
75380;HTU21D;65641;44.714;37.756;2023-02-01T03:17:10;5.51;73.48
75380;HTU21D;65641;44.714;37.756;2023-02-01T03:18:28;5.54;73.53
75380;HTU21D;65641;44.714;37.756;2023-02-01T03:19:39;5.55;73.50
75380;HTU21D;65641;44.714;37.756;2023-02-01T03:20:51;5.56;73.44
75380;HTU21D;65641;44.714;37.756;2023-02-01T03:22:01;5.59;73.35
75380;HTU21D;65641;44.714;37.756;2023-02-01T03:23:06;5.61;73.33
75380;HTU21D;65641;44.714;37.756;2023-02-01T03:24:24;5.62;73.34
75380;HTU21D;65641;44.714;37.756;2023-02-01T03:25:36;5.63;73.31
75380;HTU21D;65641;44.714;37.756;2023-02-01T03:26:43;5.64;73.25
75380;HTU21D;65641;44.714;37.756;2023-02-01T03:27:58;5.67;73.24
75380;HTU21D;65641;44.714;37.756;2023-02-01T03:29:10;5.68;73.22
75380;HTU21D;65641;44.714;37.756;2023-02-01T03:30:29;5.69;73.15
75380;HTU21D;65641;44.714;37.756;2023-02-01T03:31:35;5.70;73.13
75380;HTU21D;65641;44.714;37.756;2023-02-01T03:32:41;5.71;73.11
75380;HTU21D;65641;44.714;37.756;2023-02-01T03:34:08;5.72;73.08
75380;HTU21D;65641;44.714;37.756;2023-02-01T03:35:11;5.75;73.06
75380;HTU21D;65641;44.714;37.756;2023-02-01T03:36:31;5.78;73.03
75380;HTU21D;65641;44.714;37.756;2023-02-01T03:37:38;5.77;72.97
75380;HTU21D;65641;44.714;37.756;2023-02-01T03:40:18;5.81;72.87
75380;HTU21D;65641;44.714;37.756;2023-02-01T03:41:33;5.83;72.83
75380;HTU21D;65641;44.714;37.756;2023-02-01T03:42:42;5.83;72.83
75380;HTU21D;65641;44.714;37.756;2023-02-01T03:44:01;5.83;72.78
75380;HTU21D;65641;44.714;37.756;2023-02-01T03:45:30;5.84;72.77
75380;HTU21D;65641;44.714;37.756;2023-02-01T03:47:03;5.86;72.74
75380;HTU21D;65641;44.714;37.756;2023-02-01T03:48:06;5.86;72.76
75380;HTU21D;65641;44.714;37.756;2023-02-01T03:49:14;5.87;72.73
75380;HTU21D;65641;44.714;37.756;2023-02-01T03:50:21;5.89;72.73
75380;HTU21D;65641;44.714;37.756;2023-02-01T03:51:28;5.89;72.72
75380;HTU21D;65641;44.714;37.756;2023-02-01T03:52:41;5.90;72.74
75380;HTU21D;65641;44.714;37.756;2023-02-01T03:53:49;5.91;72.70
75380;HTU21D;65641;44.714;37.756;2023-02-01T03:54:53;5.91;72.70
75380;HTU21D;65641;44.714;37.756;2023-02-01T03:55:57;5.93;72.64
75380;HTU21D;65641;44.714;37.756;2023-02-01T03:57:05;5.94;72.65
75380;HTU21D;65641;44.714;37.756;2023-02-01T03:58:13;5.95;72.60
75380;HTU21D;65641;44.714;37.756;2023-02-01T03:59:16;5.97;72.54
75380;HTU21D;65641;44.714;37.756;2023-02-01T04:00:22;5.98;72.54
75380;HTU21D;65641;44.714;37.756;2023-02-01T04:01:28;6.00;72.48
75380;HTU21D;65641;44.714;37.756;2023-02-01T04:02:31;6.00;72.41
75380;HTU21D;65641;44.714;37.756;2023-02-01T04:03:34;6.04;72.36
75380;HTU21D;65641;44.714;37.756;2023-02-01T04:04:37;6.05;72.32
75380;HTU21D;65641;44.714;37.756;2023-02-01T04:05:41;6.06;72.25
75380;HTU21D;65641;44.714;37.756;2023-02-01T04:06:45;6.07;72.14
75380;HTU21D;65641;44.714;37.756;2023-02-01T04:07:49;6.10;72.14
75380;HTU21D;65641;44.714;37.756;2023-02-01T04:08:52;6.11;72.09
75380;HTU21D;65641;44.714;37.756;2023-02-01T04:09:55;6.13;72.06
75380;HTU21D;65641;44.714;37.756;2023-02-01T04:10:58;6.14;72.02
75380;HTU21D;65641;44.714;37.756;2023-02-01T04:12:00;6.14;71.92
75380;HTU21D;65641;44.714;37.756;2023-02-01T04:13:04;6.19;71.87
75380;HTU21D;65641;44.714;37.756;2023-02-01T04:14:07;6.21;71.77
75380;HTU21D;65641;44.714;37.756;2023-02-01T04:15:10;6.22;71.73
75380;HTU21D;65641;44.714;37.756;2023-02-01T04:16:13;6.23;71.67
75380;HTU21D;65641;44.714;37.756;2023-02-01T04:17:16;6.24;71.65
75380;HTU21D;65641;44.714;37.756;2023-02-01T04:18:19;6.25;71.67
75380;HTU21D;65641;44.714;37.756;2023-02-01T04:19:22;6.27;71.60
75380;HTU21D;65641;44.714;37.756;2023-02-01T04:20:25;6.29;71.61
75380;HTU21D;65641;44.714;37.756;2023-02-01T04:21:28;6.29;71.64
75380;HTU21D;65641;44.714;37.756;2023-02-01T04:22:31;6.30;71.61
75380;HTU21D;65641;44.714;37.756;2023-02-01T04:23:36;6.31;71.58
75380;HTU21D;65641;44.714;37.756;2023-02-01T04:24:39;6.33;71.62
75380;HTU21D;65641;44.714;37.756;2023-02-01T04:25:42;6.35;71.56
75380;HTU21D;65641;44.714;37.756;2023-02-01T04:26:45;6.36;71.61
75380;HTU21D;65641;44.714;37.756;2023-02-01T04:27:48;6.37;71.61
75380;HTU21D;65641;44.714;37.756;2023-02-01T04:28:51;6.38;71.61
75380;HTU21D;65641;44.714;37.756;2023-02-01T04:29:55;6.39;71.53
75380;HTU21D;65641;44.714;37.756;2023-02-01T04:30:59;6.40;71.52
75380;HTU21D;65641;44.714;37.756;2023-02-01T04:32:02;6.43;71.50
75380;HTU21D;65641;44.714;37.756;2023-02-01T04:33:06;6.43;71.35
75380;HTU21D;65641;44.714;37.756;2023-02-01T04:34:09;6.45;71.36
75380;HTU21D;65641;44.714;37.756;2023-02-01T04:35:12;6.45;71.33
75380;HTU21D;65641;44.714;37.756;2023-02-01T04:36:14;6.49;71.38
75380;HTU21D;65641;44.714;37.756;2023-02-01T04:37:17;6.48;71.28
75380;HTU21D;65641;44.714;37.756;2023-02-01T04:38:20;6.51;71.21
75380;HTU21D;65641;44.714;37.756;2023-02-01T04:39:23;6.52;71.25
75380;HTU21D;65641;44.714;37.756;2023-02-01T04:40:26;6.53;71.16
75380;HTU21D;65641;44.714;37.756;2023-02-01T04:41:29;6.55;71.10
75380;HTU21D;65641;44.714;37.756;2023-02-01T04:42:33;6.54;71.09
75380;HTU21D;65641;44.714;37.756;2023-02-01T04:43:35;6.58;71.06
75380;HTU21D;65641;44.714;37.756;2023-02-01T04:44:38;6.58;71.02
75380;HTU21D;65641;44.714;37.756;2023-02-01T04:45:48;6.59;70.96
75380;HTU21D;65641;44.714;37.756;2023-02-01T04:46:51;6.61;70.91
75380;HTU21D;65641;44.714;37.756;2023-02-01T04:47:54;6.64;70.87
75380;HTU21D;65641;44.714;37.756;2023-02-01T04:48:57;6.65;70.85
75380;HTU21D;65641;44.714;37.756;2023-02-01T04:50:01;6.64;70.81
75380;HTU21D;65641;44.714;37.756;2023-02-01T04:51:04;6.69;70.75
75380;HTU21D;65641;44.714;37.756;2023-02-01T04:52:07;6.70;70.69
75380;HTU21D;65641;44.714;37.756;2023-02-01T04:53:10;6.71;70.62
75380;HTU21D;65641;44.714;37.756;2023-02-01T04:54:13;6.73;70.60
75380;HTU21D;65641;44.714;37.756;2023-02-01T04:55:17;6.74;70.59
75380;HTU21D;65641;44.714;37.756;2023-02-01T04:56:19;6.75;70.61
75380;HTU21D;65641;44.714;37.756;2023-02-01T04:57:23;6.78;70.59
75380;HTU21D;65641;44.714;37.756;2023-02-01T04:58:26;6.79;70.53
75380;HTU21D;65641;44.714;37.756;2023-02-01T04:59:28;6.79;70.55
75380;HTU21D;65641;44.714;37.756;2023-02-01T05:00:32;6.81;70.59
75380;HTU21D;65641;44.714;37.756;2023-02-01T05:01:35;6.82;70.52
75380;HTU21D;65641;44.714;37.756;2023-02-01T05:02:38;6.83;70.53
75380;HTU21D;65641;44.714;37.756;2023-02-01T05:03:41;6.84;70.52
75380;HTU21D;65641;44.714;37.756;2023-02-01T05:04:44;6.85;70.58
75380;HTU21D;65641;44.714;37.756;2023-02-01T05:05:48;6.86;70.55
75380;HTU21D;65641;44.714;37.756;2023-02-01T05:06:51;6.87;70.55
75380;HTU21D;65641;44.714;37.756;2023-02-01T05:07:54;6.88;70.55
75380;HTU21D;65641;44.714;37.756;2023-02-01T05:08:57;6.90;70.54
75380;HTU21D;65641;44.714;37.756;2023-02-01T05:10:00;6.91;70.53
75380;HTU21D;65641;44.714;37.756;2023-02-01T05:11:05;6.93;70.50
75380;HTU21D;65641;44.714;37.756;2023-02-01T05:12:09;6.94;70.42
75380;HTU21D;65641;44.714;37.756;2023-02-01T05:13:30;6.96;70.42
75380;HTU21D;65641;44.714;37.756;2023-02-01T05:14:51;6.98;70.41
75380;HTU21D;65641;44.714;37.756;2023-02-01T05:15:54;6.99;70.35
75380;HTU21D;65641;44.714;37.756;2023-02-01T05:16:59;7.00;70.36
75380;HTU21D;65641;44.714;37.756;2023-02-01T05:18:05;7.01;70.35
75380;HTU21D;65641;44.714;37.756;2023-02-01T05:19:07;7.00;70.32
75380;HTU21D;65641;44.714;37.756;2023-02-01T05:20:11;7.02;70.33
75380;HTU21D;65641;44.714;37.756;2023-02-01T05:21:16;7.01;70.34
75380;HTU21D;65641;44.714;37.756;2023-02-01T05:22:43;7.03;70.32
75380;HTU21D;65641;44.714;37.756;2023-02-01T05:23:46;7.05;70.24
75380;HTU21D;65641;44.714;37.756;2023-02-01T05:25:07;7.04;70.22
75380;HTU21D;65641;44.714;37.756;2023-02-01T05:26:12;7.07;70.23
75380;HTU21D;65641;44.714;37.756;2023-02-01T05:27:15;7.07;70.19
75380;HTU21D;65641;44.714;37.756;2023-02-01T05:28:18;7.09;70.13
75380;HTU21D;65641;44.714;37.756;2023-02-01T05:29:21;7.09;70.13
75380;HTU21D;65641;44.714;37.756;2023-02-01T05:30:24;7.11;70.09
75380;HTU21D;65641;44.714;37.756;2023-02-01T05:31:27;7.13;70.01
75380;HTU21D;65641;44.714;37.756;2023-02-01T05:32:30;7.13;70.03
75380;HTU21D;65641;44.714;37.756;2023-02-01T05:33:33;7.14;70.02
75380;HTU21D;65641;44.714;37.756;2023-02-01T05:34:36;7.16;69.94
75380;HTU21D;65641;44.714;37.756;2023-02-01T05:35:39;7.17;69.75
75380;HTU21D;65641;44.714;37.756;2023-02-01T05:36:45;7.19;69.88
75380;HTU21D;65641;44.714;37.756;2023-02-01T05:37:48;7.19;69.76
75380;HTU21D;65641;44.714;37.756;2023-02-01T05:38:51;7.24;69.61
75380;HTU21D;65641;44.714;37.756;2023-02-01T05:39:56;7.24;69.65
75380;HTU21D;65641;44.714;37.756;2023-02-01T05:40:59;7.26;69.55
75380;HTU21D;65641;44.714;37.756;2023-02-01T05:42:05;7.29;69.44
75380;HTU21D;65641;44.714;37.756;2023-02-01T05:43:07;7.30;69.25
75380;HTU21D;65641;44.714;37.756;2023-02-01T05:44:11;7.33;69.28
75380;HTU21D;65641;44.714;37.756;2023-02-01T05:45:16;7.34;69.17
75380;HTU21D;65641;44.714;37.756;2023-02-01T05:46:19;7.35;69.16
75380;HTU21D;65641;44.714;37.756;2023-02-01T05:47:22;7.38;69.14
75380;HTU21D;65641;44.714;37.756;2023-02-01T05:48:25;7.39;69.18
75380;HTU21D;65641;44.714;37.756;2023-02-01T05:49:31;7.41;69.14
75380;HTU21D;65641;44.714;37.756;2023-02-01T05:50:34;7.42;69.02
75380;HTU21D;65641;44.714;37.756;2023-02-01T05:51:43;7.42;69.04
75380;HTU21D;65641;44.714;37.756;2023-02-01T05:52:47;7.46;68.96
75380;HTU21D;65641;44.714;37.756;2023-02-01T05:53:50;7.47;68.91
75380;HTU21D;65641;44.714;37.756;2023-02-01T05:54:53;7.49;68.80
75380;HTU21D;65641;44.714;37.756;2023-02-01T05:55:55;7.53;68.72
75380;HTU21D;65641;44.714;37.756;2023-02-01T05:56:58;7.55;68.68
75380;HTU21D;65641;44.714;37.756;2023-02-01T05:58:01;7.56;68.56
75380;HTU21D;65641;44.714;37.756;2023-02-01T05:59:04;7.60;68.52
75380;HTU21D;65641;44.714;37.756;2023-02-01T06:00:09;7.62;68.44
75380;HTU21D;65641;44.714;37.756;2023-02-01T06:01:16;7.65;68.38
75380;HTU21D;65641;44.714;37.756;2023-02-01T06:02:19;7.70;68.25
75380;HTU21D;65641;44.714;37.756;2023-02-01T06:03:22;7.73;68.17
75380;HTU21D;65641;44.714;37.756;2023-02-01T06:04:25;7.77;68.06
75380;HTU21D;65641;44.714;37.756;2023-02-01T06:05:29;7.81;67.89
75380;HTU21D;65641;44.714;37.756;2023-02-01T06:06:31;7.84;67.74
75380;HTU21D;65641;44.714;37.756;2023-02-01T06:07:34;7.88;67.72
75380;HTU21D;65641;44.714;37.756;2023-02-01T06:08:37;7.90;67.67
75380;HTU21D;65641;44.714;37.756;2023-02-01T06:09:42;7.92;67.55
75380;HTU21D;65641;44.714;37.756;2023-02-01T06:10:45;7.96;67.40
75380;HTU21D;65641;44.714;37.756;2023-02-01T06:11:48;7.98;67.41
75380;HTU21D;65641;44.714;37.756;2023-02-01T06:12:51;8.00;67.36
75380;HTU21D;65641;44.714;37.756;2023-02-01T06:13:56;8.05;67.17
75380;HTU21D;65641;44.714;37.756;2023-02-01T06:14:59;8.07;67.22
75380;HTU21D;65641;44.714;37.756;2023-02-01T06:16:02;8.11;67.07
75380;HTU21D;65641;44.714;37.756;2023-02-01T06:17:05;8.14;66.91
75380;HTU21D;65641;44.714;37.756;2023-02-01T06:18:09;8.19;66.80
75380;HTU21D;65641;44.714;37.756;2023-02-01T06:19:12;8.23;66.69
75380;HTU21D;65641;44.714;37.756;2023-02-01T06:20:16;8.28;66.71
75380;HTU21D;65641;44.714;37.756;2023-02-01T06:21:22;8.32;66.39
75380;HTU21D;65641;44.714;37.756;2023-02-01T06:22:28;8.35;66.39
75380;HTU21D;65641;44.714;37.756;2023-02-01T06:23:31;8.38;66.37
75380;HTU21D;65641;44.714;37.756;2023-02-01T06:24:34;8.42;66.23
75380;HTU21D;65641;44.714;37.756;2023-02-01T06:25:37;8.45;66.23
75380;HTU21D;65641;44.714;37.756;2023-02-01T06:26:42;8.48;66.07
75380;HTU21D;65641;44.714;37.756;2023-02-01T06:27:47;8.49;66.11
75380;HTU21D;65641;44.714;37.756;2023-02-01T06:28:51;8.50;66.11
75380;HTU21D;65641;44.714;37.756;2023-02-01T06:30:15;8.53;66.04
75380;HTU21D;65641;44.714;37.756;2023-02-01T06:31:27;8.53;66.11
75380;HTU21D;65641;44.714;37.756;2023-02-01T06:32:39;8.56;66.10
75380;HTU21D;65641;44.714;37.756;2023-02-01T06:33:43;8.57;66.07
75380;HTU21D;65641;44.714;37.756;2023-02-01T06:34:53;8.59;66.05
75380;HTU21D;65641;44.714;37.756;2023-02-01T06:36:04;8.61;66.04
75380;HTU21D;65641;44.714;37.756;2023-02-01T06:37:12;8.61;66.07
75380;HTU21D;65641;44.714;37.756;2023-02-01T06:38:16;8.62;66.06
75380;HTU21D;65641;44.714;37.756;2023-02-01T06:39:24;8.64;66.14
75380;HTU21D;65641;44.714;37.756;2023-02-01T06:40:29;8.66;66.03
75380;HTU21D;65641;44.714;37.756;2023-02-01T06:41:34;8.67;66.04
75380;HTU21D;65641;44.714;37.756;2023-02-01T06:42:37;8.70;66.09
75380;HTU21D;65641;44.714;37.756;2023-02-01T06:43:40;8.72;65.98
75380;HTU21D;65641;44.714;37.756;2023-02-01T06:44:43;8.73;66.00
75380;HTU21D;65641;44.714;37.756;2023-02-01T06:45:47;8.74;65.92
75380;HTU21D;65641;44.714;37.756;2023-02-01T06:46:50;8.76;65.98
75380;HTU21D;65641;44.714;37.756;2023-02-01T06:47:53;8.79;65.92
75380;HTU21D;65641;44.714;37.756;2023-02-01T06:48:56;8.80;65.88
75380;HTU21D;65641;44.714;37.756;2023-02-01T06:49:59;8.82;65.87
75380;HTU21D;65641;44.714;37.756;2023-02-01T06:51:04;8.85;65.84
75380;HTU21D;65641;44.714;37.756;2023-02-01T06:52:07;8.87;65.78
75380;HTU21D;65641;44.714;37.756;2023-02-01T06:53:10;8.90;65.72
75380;HTU21D;65641;44.714;37.756;2023-02-01T06:54:13;8.92;65.75
75380;HTU21D;65641;44.714;37.756;2023-02-01T06:55:16;8.94;65.72
75380;HTU21D;65641;44.714;37.756;2023-02-01T06:56:19;8.96;65.67
75380;HTU21D;65641;44.714;37.756;2023-02-01T06:57:23;8.97;65.60
75380;HTU21D;65641;44.714;37.756;2023-02-01T06:58:32;9.02;65.65
75380;HTU21D;65641;44.714;37.756;2023-02-01T06:59:35;9.04;65.50
75380;HTU21D;65641;44.714;37.756;2023-02-01T07:00:38;9.08;65.43
75380;HTU21D;65641;44.714;37.756;2023-02-01T07:01:41;9.11;65.33
75380;HTU21D;65641;44.714;37.756;2023-02-01T07:02:44;9.14;65.38
75380;HTU21D;65641;44.714;37.756;2023-02-01T07:03:48;9.18;65.33
75380;HTU21D;65641;44.714;37.756;2023-02-01T07:04:52;9.20;65.25
75380;HTU21D;65641;44.714;37.756;2023-02-01T07:05:56;9.21;65.21
75380;HTU21D;65641;44.714;37.756;2023-02-01T07:07:01;9.25;65.14
75380;HTU21D;65641;44.714;37.756;2023-02-01T07:08:07;9.30;65.04
75380;HTU21D;65641;44.714;37.756;2023-02-01T07:09:10;9.32;65.01
75380;HTU21D;65641;44.714;37.756;2023-02-01T07:10:15;9.33;64.94
75380;HTU21D;65641;44.714;37.756;2023-02-01T07:11:18;9.36;64.92
75380;HTU21D;65641;44.714;37.756;2023-02-01T07:12:21;9.37;64.85
75380;HTU21D;65641;44.714;37.756;2023-02-01T07:13:24;9.42;64.79
75380;HTU21D;65641;44.714;37.756;2023-02-01T07:14:27;9.45;64.65
75380;HTU21D;65641;44.714;37.756;2023-02-01T07:15:33;9.48;64.63
75380;HTU21D;65641;44.714;37.756;2023-02-01T07:16:36;9.51;64.61
75380;HTU21D;65641;44.714;37.756;2023-02-01T07:17:42;9.51;64.56
75380;HTU21D;65641;44.714;37.756;2023-02-01T07:18:47;9.53;64.51
75380;HTU21D;65641;44.714;37.756;2023-02-01T07:19:51;9.56;64.51
75380;HTU21D;65641;44.714;37.756;2023-02-01T07:20:55;9.60;64.48
75380;HTU21D;65641;44.714;37.756;2023-02-01T07:21:57;9.61;64.42